sensor_id;sensor_type;location;lat;lon;timestamp;P1;durP1;ratioP1;P2;durP2;ratioP2
30185;SDS011;31152;49.190;8.122;2023-08-30T00:01:12;6.15;;;4.03;;
30185;SDS011;31152;49.190;8.122;2023-08-30T00:03:39;5.85;;;4.40;;
30185;SDS011;31152;49.190;8.122;2023-08-30T00:06:06;4.63;;;3.67;;
30185;SDS011;31152;49.190;8.122;2023-08-30T00:08:33;5.18;;;3.97;;
30185;SDS011;31152;49.190;8.122;2023-08-30T00:11:01;8.65;;;5.53;;
30185;SDS011;31152;49.190;8.122;2023-08-30T00:13:29;9.35;;;4.70;;
30185;SDS011;31152;49.190;8.122;2023-08-30T00:16:00;8.07;;;4.47;;
30185;SDS011;31152;49.190;8.122;2023-08-30T00:18:29;6.70;;;4.60;;
30185;SDS011;31152;49.190;8.122;2023-08-30T00:20:56;5.13;;;4.30;;
30185;SDS011;31152;49.190;8.122;2023-08-30T00:23:23;6.15;;;4.30;;
30185;SDS011;31152;49.190;8.122;2023-08-30T00:25:53;7.00;;;4.30;;
30185;SDS011;31152;49.190;8.122;2023-08-30T00:28:19;8.80;;;4.40;;
30185;SDS011;31152;49.190;8.122;2023-08-30T00:30:46;4.93;;;4.38;;
30185;SDS011;31152;49.190;8.122;2023-08-30T00:33:21;5.75;;;4.60;;
30185;SDS011;31152;49.190;8.122;2023-08-30T00:35:57;9.02;;;4.80;;
30185;SDS011;31152;49.190;8.122;2023-08-30T00:38:25;7.13;;;4.97;;
30185;SDS011;31152;49.190;8.122;2023-08-30T00:40:53;6.15;;;5.07;;
30185;SDS011;31152;49.190;8.122;2023-08-30T00:43:20;7.05;;;5.25;;
30185;SDS011;31152;49.190;8.122;2023-08-30T00:45:47;7.57;;;5.38;;
30185;SDS011;31152;49.190;8.122;2023-08-30T00:48:15;8.18;;;5.07;;
30185;SDS011;31152;49.190;8.122;2023-08-30T00:50:47;6.93;;;4.85;;
30185;SDS011;31152;49.190;8.122;2023-08-30T00:53:14;5.50;;;5.00;;
30185;SDS011;31152;49.190;8.122;2023-08-30T00:55:41;6.07;;;5.03;;
30185;SDS011;31152;49.190;8.122;2023-08-30T00:58:09;12.40;;;5.20;;
30185;SDS011;31152;49.190;8.122;2023-08-30T01:00:37;5.55;;;4.80;;
30185;SDS011;31152;49.190;8.122;2023-08-30T01:03:05;5.90;;;4.88;;
30185;SDS011;31152;49.190;8.122;2023-08-30T01:05:34;8.25;;;5.35;;
30185;SDS011;31152;49.190;8.122;2023-08-30T01:08:01;10.60;;;4.85;;
30185;SDS011;31152;49.190;8.122;2023-08-30T01:10:33;6.25;;;4.80;;
30185;SDS011;31152;49.190;8.122;2023-08-30T01:13:08;6.40;;;5.10;;
30185;SDS011;31152;49.190;8.122;2023-08-30T01:15:39;8.50;;;5.07;;
30185;SDS011;31152;49.190;8.122;2023-08-30T01:18:08;8.45;;;5.88;;
30185;SDS011;31152;49.190;8.122;2023-08-30T01:20:37;7.95;;;5.47;;
30185;SDS011;31152;49.190;8.122;2023-08-30T01:25:43;7.38;;;4.93;;
30185;SDS011;31152;49.190;8.122;2023-08-30T01:28:13;7.72;;;5.90;;
30185;SDS011;31152;49.190;8.122;2023-08-30T01:30:42;6.82;;;5.47;;
30185;SDS011;31152;49.190;8.122;2023-08-30T01:33:13;7.57;;;5.40;;
30185;SDS011;31152;49.190;8.122;2023-08-30T01:38:14;12.63;;;6.15;;
30185;SDS011;31152;49.190;8.122;2023-08-30T01:40:42;10.02;;;5.60;;
30185;SDS011;31152;49.190;8.122;2023-08-30T01:43:11;8.45;;;6.25;;
30185;SDS011;31152;49.190;8.122;2023-08-30T01:45:41;11.18;;;5.72;;
30185;SDS011;31152;49.190;8.122;2023-08-30T01:48:12;9.20;;;5.55;;
30185;SDS011;31152;49.190;8.122;2023-08-30T01:50:42;6.68;;;5.95;;
30185;SDS011;31152;49.190;8.122;2023-08-30T01:53:10;6.07;;;5.43;;
30185;SDS011;31152;49.190;8.122;2023-08-30T01:55:38;5.55;;;4.93;;
30185;SDS011;31152;49.190;8.122;2023-08-30T01:58:08;8.60;;;4.90;;
30185;SDS011;31152;49.190;8.122;2023-08-30T02:00:36;7.13;;;5.30;;
30185;SDS011;31152;49.190;8.122;2023-08-30T02:03:09;7.10;;;6.40;;
30185;SDS011;31152;49.190;8.122;2023-08-30T02:05:37;8.50;;;6.50;;
30185;SDS011;31152;49.190;8.122;2023-08-30T02:08:14;9.82;;;6.10;;
30185;SDS011;31152;49.190;8.122;2023-08-30T02:10:55;7.90;;;6.75;;
30185;SDS011;31152;49.190;8.122;2023-08-30T02:13:25;8.60;;;6.70;;
30185;SDS011;31152;49.190;8.122;2023-08-30T02:15:55;9.10;;;6.72;;
30185;SDS011;31152;49.190;8.122;2023-08-30T02:18:24;7.45;;;6.65;;
30185;SDS011;31152;49.190;8.122;2023-08-30T02:20:52;9.52;;;7.43;;
30185;SDS011;31152;49.190;8.122;2023-08-30T02:23:22;9.70;;;7.20;;
30185;SDS011;31152;49.190;8.122;2023-08-30T02:25:50;8.75;;;7.85;;
30185;SDS011;31152;49.190;8.122;2023-08-30T02:28:16;10.60;;;7.97;;
30185;SDS011;31152;49.190;8.122;2023-08-30T02:30:43;11.20;;;7.90;;
30185;SDS011;31152;49.190;8.122;2023-08-30T02:33:15;8.80;;;6.90;;
30185;SDS011;31152;49.190;8.122;2023-08-30T02:35:44;10.63;;;7.78;;
30185;SDS011;31152;49.190;8.122;2023-08-30T02:38:11;10.98;;;8.50;;
30185;SDS011;31152;49.190;8.122;2023-08-30T02:40:38;8.68;;;7.68;;
30185;SDS011;31152;49.190;8.122;2023-08-30T02:43:05;10.88;;;7.88;;
30185;SDS011;31152;49.190;8.122;2023-08-30T02:45:36;8.88;;;7.95;;
30185;SDS011;31152;49.190;8.122;2023-08-30T02:48:03;12.35;;;8.15;;
30185;SDS011;31152;49.190;8.122;2023-08-30T02:50:30;10.20;;;8.02;;
30185;SDS011;31152;49.190;8.122;2023-08-30T02:52:57;9.73;;;8.48;;
30185;SDS011;31152;49.190;8.122;2023-08-30T02:55:26;9.23;;;8.20;;
30185;SDS011;31152;49.190;8.122;2023-08-30T02:57:53;12.00;;;8.40;;
30185;SDS011;31152;49.190;8.122;2023-08-30T03:00:20;11.68;;;9.32;;
30185;SDS011;31152;49.190;8.122;2023-08-30T03:02:47;10.55;;;8.55;;
30185;SDS011;31152;49.190;8.122;2023-08-30T03:05:14;10.70;;;8.75;;
30185;SDS011;31152;49.190;8.122;2023-08-30T03:07:41;11.07;;;8.85;;
30185;SDS011;31152;49.190;8.122;2023-08-30T03:10:11;11.88;;;8.55;;
30185;SDS011;31152;49.190;8.122;2023-08-30T03:12:38;11.85;;;9.30;;
30185;SDS011;31152;49.190;8.122;2023-08-30T03:15:05;13.07;;;8.23;;
30185;SDS011;31152;49.190;8.122;2023-08-30T03:17:32;8.80;;;7.90;;
30185;SDS011;31152;49.190;8.122;2023-08-30T03:19:59;12.25;;;8.90;;
30185;SDS011;31152;49.190;8.122;2023-08-30T03:22:26;13.88;;;8.98;;
30185;SDS011;31152;49.190;8.122;2023-08-30T03:24:53;10.00;;;8.48;;
30185;SDS011;31152;49.190;8.122;2023-08-30T03:27:19;10.82;;;8.57;;
30185;SDS011;31152;49.190;8.122;2023-08-30T03:29:46;9.50;;;7.78;;
30185;SDS011;31152;49.190;8.122;2023-08-30T03:32:14;10.75;;;8.63;;
30185;SDS011;31152;49.190;8.122;2023-08-30T03:34:44;9.98;;;8.65;;
30185;SDS011;31152;49.190;8.122;2023-08-30T03:37:13;9.38;;;8.45;;
30185;SDS011;31152;49.190;8.122;2023-08-30T03:39:41;11.07;;;8.07;;
30185;SDS011;31152;49.190;8.122;2023-08-30T03:42:10;9.27;;;7.80;;
30185;SDS011;31152;49.190;8.122;2023-08-30T03:44:37;12.05;;;9.32;;
30185;SDS011;31152;49.190;8.122;2023-08-30T03:47:05;12.95;;;9.02;;
30185;SDS011;31152;49.190;8.122;2023-08-30T03:49:31;11.50;;;9.90;;
30185;SDS011;31152;49.190;8.122;2023-08-30T03:51:58;16.13;;;10.32;;
30185;SDS011;31152;49.190;8.122;2023-08-30T03:54:25;11.02;;;9.40;;
30185;SDS011;31152;49.190;8.122;2023-08-30T03:56:52;13.05;;;10.32;;
30185;SDS011;31152;49.190;8.122;2023-08-30T03:59:21;12.52;;;10.80;;
30185;SDS011;31152;49.190;8.122;2023-08-30T04:01:52;13.98;;;10.80;;
30185;SDS011;31152;49.190;8.122;2023-08-30T04:04:19;15.43;;;11.70;;
30185;SDS011;31152;49.190;8.122;2023-08-30T04:06:45;15.27;;;12.25;;
30185;SDS011;31152;49.190;8.122;2023-08-30T04:09:12;13.55;;;11.77;;
30185;SDS011;31152;49.190;8.122;2023-08-30T04:11:39;13.80;;;12.15;;
30185;SDS011;31152;49.190;8.122;2023-08-30T04:14:06;13.90;;;11.88;;
30185;SDS011;31152;49.190;8.122;2023-08-30T04:16:33;15.63;;;12.27;;
30185;SDS011;31152;49.190;8.122;2023-08-30T04:18:59;14.27;;;12.48;;
30185;SDS011;31152;49.190;8.122;2023-08-30T04:21:26;18.15;;;11.88;;
30185;SDS011;31152;49.190;8.122;2023-08-30T04:23:53;15.68;;;12.65;;
30185;SDS011;31152;49.190;8.122;2023-08-30T04:26:22;15.00;;;12.52;;
30185;SDS011;31152;49.190;8.122;2023-08-30T04:28:49;15.57;;;13.50;;
30185;SDS011;31152;49.190;8.122;2023-08-30T04:31:18;19.55;;;13.02;;
30185;SDS011;31152;49.190;8.122;2023-08-30T04:33:44;17.85;;;14.32;;
30185;SDS011;31152;49.190;8.122;2023-08-30T04:36:13;19.90;;;13.77;;
30185;SDS011;31152;49.190;8.122;2023-08-30T04:38:39;16.30;;;13.50;;
30185;SDS011;31152;49.190;8.122;2023-08-30T04:41:25;18.67;;;12.95;;
30185;SDS011;31152;49.190;8.122;2023-08-30T04:43:52;18.17;;;13.45;;
30185;SDS011;31152;49.190;8.122;2023-08-30T04:46:19;21.70;;;13.98;;
30185;SDS011;31152;49.190;8.122;2023-08-30T04:48:46;22.63;;;13.57;;
30185;SDS011;31152;49.190;8.122;2023-08-30T04:51:15;17.25;;;14.15;;
30185;SDS011;31152;49.190;8.122;2023-08-30T04:53:44;18.88;;;13.05;;
30185;SDS011;31152;49.190;8.122;2023-08-30T04:56:14;16.40;;;14.07;;
30185;SDS011;31152;49.190;8.122;2023-08-30T04:58:44;19.40;;;14.10;;
30185;SDS011;31152;49.190;8.122;2023-08-30T05:01:11;20.55;;;14.20;;
30185;SDS011;31152;49.190;8.122;2023-08-30T05:03:40;17.15;;;13.82;;
30185;SDS011;31152;49.190;8.122;2023-08-30T05:06:07;17.48;;;14.40;;
30185;SDS011;31152;49.190;8.122;2023-08-30T05:08:34;17.15;;;14.60;;
30185;SDS011;31152;49.190;8.122;2023-08-30T05:11:00;17.17;;;13.73;;
30185;SDS011;31152;49.190;8.122;2023-08-30T05:13:31;16.08;;;14.02;;
30185;SDS011;31152;49.190;8.122;2023-08-30T05:15:58;15.75;;;13.30;;
30185;SDS011;31152;49.190;8.122;2023-08-30T05:18:27;18.05;;;13.85;;
30185;SDS011;31152;49.190;8.122;2023-08-30T05:20:56;16.80;;;13.27;;
30185;SDS011;31152;49.190;8.122;2023-08-30T05:23:23;15.50;;;13.57;;
30185;SDS011;31152;49.190;8.122;2023-08-30T05:25:50;16.42;;;13.23;;
30185;SDS011;31152;49.190;8.122;2023-08-30T05:28:16;22.55;;;14.07;;
30185;SDS011;31152;49.190;8.122;2023-08-30T05:30:44;17.38;;;13.98;;
30185;SDS011;31152;49.190;8.122;2023-08-30T05:33:11;17.75;;;13.93;;
30185;SDS011;31152;49.190;8.122;2023-08-30T05:35:37;18.45;;;13.85;;
30185;SDS011;31152;49.190;8.122;2023-08-30T05:38:07;15.60;;;13.18;;
30185;SDS011;31152;49.190;8.122;2023-08-30T05:40:34;19.45;;;14.27;;
30185;SDS011;31152;49.190;8.122;2023-08-30T05:43:01;16.98;;;13.10;;
30185;SDS011;31152;49.190;8.122;2023-08-30T05:45:28;16.27;;;13.18;;
30185;SDS011;31152;49.190;8.122;2023-08-30T05:47:54;18.00;;;13.85;;
30185;SDS011;31152;49.190;8.122;2023-08-30T05:50:21;19.45;;;13.88;;
30185;SDS011;31152;49.190;8.122;2023-08-30T05:52:50;22.27;;;14.13;;
30185;SDS011;31152;49.190;8.122;2023-08-30T05:55:17;17.75;;;13.20;;
30185;SDS011;31152;49.190;8.122;2023-08-30T05:57:44;16.80;;;12.77;;
30185;SDS011;31152;49.190;8.122;2023-08-30T06:00:11;18.83;;;13.52;;
30185;SDS011;31152;49.190;8.122;2023-08-30T06:02:39;19.67;;;13.52;;
30185;SDS011;31152;49.190;8.122;2023-08-30T06:05:08;16.05;;;13.52;;
30185;SDS011;31152;49.190;8.122;2023-08-30T06:07:35;15.25;;;13.40;;
30185;SDS011;31152;49.190;8.122;2023-08-30T06:10:02;16.42;;;12.57;;
30185;SDS011;31152;49.190;8.122;2023-08-30T06:12:30;15.77;;;13.07;;
30185;SDS011;31152;49.190;8.122;2023-08-30T06:14:57;16.25;;;12.93;;
30185;SDS011;31152;49.190;8.122;2023-08-30T06:17:24;15.35;;;12.48;;
30185;SDS011;31152;49.190;8.122;2023-08-30T06:19:51;15.77;;;12.65;;
30185;SDS011;31152;49.190;8.122;2023-08-30T06:22:18;15.57;;;13.60;;
30185;SDS011;31152;49.190;8.122;2023-08-30T06:24:44;14.40;;;12.10;;
30185;SDS011;31152;49.190;8.122;2023-08-30T06:27:11;17.00;;;12.82;;
30185;SDS011;31152;49.190;8.122;2023-08-30T06:29:38;15.07;;;12.43;;
30185;SDS011;31152;49.190;8.122;2023-08-30T06:32:05;16.02;;;12.63;;
30185;SDS011;31152;49.190;8.122;2023-08-30T06:34:34;14.15;;;12.65;;
30185;SDS011;31152;49.190;8.122;2023-08-30T06:37:03;17.02;;;12.52;;
30185;SDS011;31152;49.190;8.122;2023-08-30T06:39:33;15.90;;;11.98;;
30185;SDS011;31152;49.190;8.122;2023-08-30T06:42:02;17.60;;;12.50;;
30185;SDS011;31152;49.190;8.122;2023-08-30T06:44:29;12.82;;;11.13;;
30185;SDS011;31152;49.190;8.122;2023-08-30T06:46:56;14.40;;;10.75;;
30185;SDS011;31152;49.190;8.122;2023-08-30T06:49:28;15.50;;;11.07;;
30185;SDS011;31152;49.190;8.122;2023-08-30T06:51:55;11.43;;;9.93;;
30185;SDS011;31152;49.190;8.122;2023-08-30T06:54:21;12.63;;;10.95;;
30185;SDS011;31152;49.190;8.122;2023-08-30T06:57:00;12.98;;;9.95;;
30185;SDS011;31152;49.190;8.122;2023-08-30T06:59:27;13.90;;;9.60;;
30185;SDS011;31152;49.190;8.122;2023-08-30T07:01:54;10.63;;;9.50;;
30185;SDS011;31152;49.190;8.122;2023-08-30T07:04:23;11.98;;;9.20;;
30185;SDS011;31152;49.190;8.122;2023-08-30T07:06:52;10.45;;;9.40;;
30185;SDS011;31152;49.190;8.122;2023-08-30T07:09:19;12.70;;;10.50;;
30185;SDS011;31152;49.190;8.122;2023-08-30T07:11:48;12.25;;;10.52;;
30185;SDS011;31152;49.190;8.122;2023-08-30T07:14:15;13.75;;;9.85;;
30185;SDS011;31152;49.190;8.122;2023-08-30T07:16:42;11.57;;;10.38;;
30185;SDS011;31152;49.190;8.122;2023-08-30T07:19:09;11.27;;;9.63;;
30185;SDS011;31152;49.190;8.122;2023-08-30T07:21:36;11.00;;;9.82;;
30185;SDS011;31152;49.190;8.122;2023-08-30T07:24:06;10.68;;;9.50;;
30185;SDS011;31152;49.190;8.122;2023-08-30T07:26:33;14.45;;;9.98;;
30185;SDS011;31152;49.190;8.122;2023-08-30T07:29:00;11.75;;;9.90;;
30185;SDS011;31152;49.190;8.122;2023-08-30T07:31:30;12.32;;;9.65;;
30185;SDS011;31152;49.190;8.122;2023-08-30T07:34:00;12.93;;;9.60;;
30185;SDS011;31152;49.190;8.122;2023-08-30T07:36:27;10.63;;;9.18;;
30185;SDS011;31152;49.190;8.122;2023-08-30T07:39:12;11.23;;;9.75;;
30185;SDS011;31152;49.190;8.122;2023-08-30T07:41:40;11.88;;;9.25;;
30185;SDS011;31152;49.190;8.122;2023-08-30T07:44:06;11.30;;;9.77;;
30185;SDS011;31152;49.190;8.122;2023-08-30T07:46:33;11.20;;;8.55;;
30185;SDS011;31152;49.190;8.122;2023-08-30T07:49:00;10.13;;;8.90;;
30185;SDS011;31152;49.190;8.122;2023-08-30T07:51:27;10.60;;;8.77;;
30185;SDS011;31152;49.190;8.122;2023-08-30T07:53:54;13.65;;;8.95;;
30185;SDS011;31152;49.190;8.122;2023-08-30T07:56:21;11.45;;;8.27;;
30185;SDS011;31152;49.190;8.122;2023-08-30T07:58:48;9.40;;;8.35;;
30185;SDS011;31152;49.190;8.122;2023-08-30T08:01:15;8.02;;;7.22;;
30185;SDS011;31152;49.190;8.122;2023-08-30T08:03:42;10.30;;;7.95;;
30185;SDS011;31152;49.190;8.122;2023-08-30T08:06:29;9.43;;;7.22;;
30185;SDS011;31152;49.190;8.122;2023-08-30T08:08:58;8.38;;;7.07;;
30185;SDS011;31152;49.190;8.122;2023-08-30T08:11:25;7.80;;;7.00;;
30185;SDS011;31152;49.190;8.122;2023-08-30T08:13:54;8.38;;;6.68;;
30185;SDS011;31152;49.190;8.122;2023-08-30T08:16:21;8.55;;;6.80;;
30185;SDS011;31152;49.190;8.122;2023-08-30T08:18:48;7.93;;;6.45;;
30185;SDS011;31152;49.190;8.122;2023-08-30T08:21:16;8.63;;;6.28;;
30185;SDS011;31152;49.190;8.122;2023-08-30T08:23:43;9.23;;;6.15;;
30185;SDS011;31152;49.190;8.122;2023-08-30T08:26:10;9.73;;;6.95;;
30185;SDS011;31152;49.190;8.122;2023-08-30T08:28:37;8.55;;;7.32;;
30185;SDS011;31152;49.190;8.122;2023-08-30T08:31:04;10.13;;;6.38;;
30185;SDS011;31152;49.190;8.122;2023-08-30T08:33:32;8.50;;;7.00;;
30185;SDS011;31152;49.190;8.122;2023-08-30T08:35:59;9.20;;;6.22;;
30185;SDS011;31152;49.190;8.122;2023-08-30T08:38:29;6.55;;;5.78;;
30185;SDS011;31152;49.190;8.122;2023-08-30T08:41:04;7.05;;;5.97;;
30185;SDS011;31152;49.190;8.122;2023-08-30T08:43:32;7.10;;;6.07;;
30185;SDS011;31152;49.190;8.122;2023-08-30T08:46:01;7.30;;;5.45;;
30185;SDS011;31152;49.190;8.122;2023-08-30T08:48:29;8.02;;;6.03;;
30185;SDS011;31152;49.190;8.122;2023-08-30T08:51:00;9.18;;;6.10;;
30185;SDS011;31152;49.190;8.122;2023-08-30T08:53:29;9.43;;;5.90;;
30185;SDS011;31152;49.190;8.122;2023-08-30T08:55:56;6.43;;;5.60;;
30185;SDS011;31152;49.190;8.122;2023-08-30T08:58:24;6.90;;;6.10;;
30185;SDS011;31152;49.190;8.122;2023-08-30T09:00:52;7.35;;;5.68;;
30185;SDS011;31152;49.190;8.122;2023-08-30T09:03:20;8.15;;;5.13;;
30185;SDS011;31152;49.190;8.122;2023-08-30T09:05:50;6.82;;;4.95;;
30185;SDS011;31152;49.190;8.122;2023-08-30T09:08:18;6.28;;;5.07;;
30185;SDS011;31152;49.190;8.122;2023-08-30T09:10:47;11.48;;;5.97;;
30185;SDS011;31152;49.190;8.122;2023-08-30T09:13:16;5.72;;;5.13;;
30185;SDS011;31152;49.190;8.122;2023-08-30T09:15:44;6.20;;;5.60;;
30185;SDS011;31152;49.190;8.122;2023-08-30T09:18:17;9.00;;;4.60;;
30185;SDS011;31152;49.190;8.122;2023-08-30T09:23:18;6.13;;;5.05;;
30185;SDS011;31152;49.190;8.122;2023-08-30T09:25:46;4.82;;;4.32;;
30185;SDS011;31152;49.190;8.122;2023-08-30T09:28:20;5.20;;;4.53;;
30185;SDS011;31152;49.190;8.122;2023-08-30T09:30:50;7.07;;;4.60;;
30185;SDS011;31152;49.190;8.122;2023-08-30T09:35:48;7.40;;;4.03;;
30185;SDS011;31152;49.190;8.122;2023-08-30T09:38:19;4.38;;;3.97;;
30185;SDS011;31152;49.190;8.122;2023-08-30T09:40:49;4.22;;;3.90;;
30185;SDS011;31152;49.190;8.122;2023-08-30T09:43:20;6.40;;;4.25;;
30185;SDS011;31152;49.190;8.122;2023-08-30T09:45:50;5.68;;;3.85;;
30185;SDS011;31152;49.190;8.122;2023-08-30T09:48:20;5.97;;;3.53;;
30185;SDS011;31152;49.190;8.122;2023-08-30T09:50:52;4.13;;;3.72;;
30185;SDS011;31152;49.190;8.122;2023-08-30T09:53:24;5.03;;;3.45;;
30185;SDS011;31152;49.190;8.122;2023-08-30T09:55:58;5.82;;;3.58;;
30185;SDS011;31152;49.190;8.122;2023-08-30T09:58:25;4.28;;;3.13;;
30185;SDS011;31152;49.190;8.122;2023-08-30T10:00:54;4.20;;;3.55;;
30185;SDS011;31152;49.190;8.122;2023-08-30T10:03:21;4.75;;;3.25;;
30185;SDS011;31152;49.190;8.122;2023-08-30T10:06:08;2.70;;;2.33;;
30185;SDS011;31152;49.190;8.122;2023-08-30T10:08:37;3.78;;;2.22;;
30185;SDS011;31152;49.190;8.122;2023-08-30T10:11:06;4.13;;;2.53;;
30185;SDS011;31152;49.190;8.122;2023-08-30T10:13:34;2.95;;;2.15;;
30185;SDS011;31152;49.190;8.122;2023-08-30T10:16:03;2.55;;;2.03;;
30185;SDS011;31152;49.190;8.122;2023-08-30T10:18:31;3.75;;;2.75;;
30185;SDS011;31152;49.190;8.122;2023-08-30T10:20:58;3.08;;;2.35;;
30185;SDS011;31152;49.190;8.122;2023-08-30T10:23:27;3.55;;;2.00;;
30185;SDS011;31152;49.190;8.122;2023-08-30T10:25:55;2.72;;;2.40;;
30185;SDS011;31152;49.190;8.122;2023-08-30T10:28:24;5.35;;;2.22;;
30185;SDS011;31152;49.190;8.122;2023-08-30T10:30:52;2.80;;;2.33;;
30185;SDS011;31152;49.190;8.122;2023-08-30T10:33:19;2.38;;;2.17;;
30185;SDS011;31152;49.190;8.122;2023-08-30T10:35:52;2.70;;;2.50;;
30185;SDS011;31152;49.190;8.122;2023-08-30T10:38:24;5.03;;;2.30;;
30185;SDS011;31152;49.190;8.122;2023-08-30T10:40:55;3.00;;;2.20;;
30185;SDS011;31152;49.190;8.122;2023-08-30T10:43:33;3.85;;;1.70;;
30185;SDS011;31152;49.190;8.122;2023-08-30T10:46:05;2.92;;;1.98;;
30185;SDS011;31152;49.190;8.122;2023-08-30T10:48:38;4.75;;;2.35;;
30185;SDS011;31152;49.190;8.122;2023-08-30T10:51:21;2.47;;;2.28;;
30185;SDS011;31152;49.190;8.122;2023-08-30T10:54:13;2.67;;;1.80;;
30185;SDS011;31152;49.190;8.122;2023-08-30T10:56:59;4.75;;;2.10;;
30185;SDS011;31152;49.190;8.122;2023-08-30T10:59:29;4.35;;;2.05;;
30185;SDS011;31152;49.190;8.122;2023-08-30T11:01:56;4.35;;;1.98;;
30185;SDS011;31152;49.190;8.122;2023-08-30T11:04:27;1.70;;;1.40;;
30185;SDS011;31152;49.190;8.122;2023-08-30T11:06:54;2.30;;;1.45;;
30185;SDS011;31152;49.190;8.122;2023-08-30T11:09:23;2.55;;;1.63;;
30185;SDS011;31152;49.190;8.122;2023-08-30T11:11:51;3.90;;;1.40;;
30185;SDS011;31152;49.190;8.122;2023-08-30T11:14:18;2.60;;;1.65;;
30185;SDS011;31152;49.190;8.122;2023-08-30T11:16:47;3.15;;;1.60;;
30185;SDS011;31152;49.190;8.122;2023-08-30T11:19:14;2.17;;;1.50;;
30185;SDS011;31152;49.190;8.122;2023-08-30T11:21:44;5.30;;;1.88;;
30185;SDS011;31152;49.190;8.122;2023-08-30T11:24:12;3.80;;;1.67;;
30185;SDS011;31152;49.190;8.122;2023-08-30T11:26:39;3.63;;;2.08;;
30185;SDS011;31152;49.190;8.122;2023-08-30T11:29:06;4.32;;;1.75;;
30185;SDS011;31152;49.190;8.122;2023-08-30T11:31:34;3.50;;;2.20;;
30185;SDS011;31152;49.190;8.122;2023-08-30T11:34:02;3.00;;;1.95;;
30185;SDS011;31152;49.190;8.122;2023-08-30T11:36:31;2.72;;;1.67;;
30185;SDS011;31152;49.190;8.122;2023-08-30T11:39:01;3.22;;;1.60;;
30185;SDS011;31152;49.190;8.122;2023-08-30T11:41:28;2.83;;;1.80;;
30185;SDS011;31152;49.190;8.122;2023-08-30T11:43:57;2.95;;;1.88;;
30185;SDS011;31152;49.190;8.122;2023-08-30T11:46:24;2.60;;;1.85;;
30185;SDS011;31152;49.190;8.122;2023-08-30T11:48:51;2.55;;;1.85;;
30185;SDS011;31152;49.190;8.122;2023-08-30T11:51:20;1.88;;;1.70;;
30185;SDS011;31152;49.190;8.122;2023-08-30T11:53:47;3.55;;;1.70;;
30185;SDS011;31152;49.190;8.122;2023-08-30T11:56:15;2.80;;;1.35;;
30185;SDS011;31152;49.190;8.122;2023-08-30T11:58:43;2.42;;;1.77;;
30185;SDS011;31152;49.190;8.122;2023-08-30T12:01:10;1.73;;;1.27;;
30185;SDS011;31152;49.190;8.122;2023-08-30T12:03:38;2.42;;;1.60;;
30185;SDS011;31152;49.190;8.122;2023-08-30T12:06:09;2.25;;;1.50;;
30185;SDS011;31152;49.190;8.122;2023-08-30T12:08:40;3.75;;;1.75;;
30185;SDS011;31152;49.190;8.122;2023-08-30T12:11:19;2.15;;;1.42;;
30185;SDS011;31152;49.190;8.122;2023-08-30T12:13:46;2.97;;;1.70;;
30185;SDS011;31152;49.190;8.122;2023-08-30T12:16:17;2.63;;;1.48;;
30185;SDS011;31152;49.190;8.122;2023-08-30T12:18:44;3.80;;;1.40;;
30185;SDS011;31152;49.190;8.122;2023-08-30T12:21:12;3.58;;;1.60;;
30185;SDS011;31152;49.190;8.122;2023-08-30T12:23:40;1.73;;;1.40;;
30185;SDS011;31152;49.190;8.122;2023-08-30T12:26:07;3.95;;;1.90;;
30185;SDS011;31152;49.190;8.122;2023-08-30T12:28:38;2.20;;;1.48;;
30185;SDS011;31152;49.190;8.122;2023-08-30T12:31:10;2.43;;;1.43;;
30185;SDS011;31152;49.190;8.122;2023-08-30T12:33:37;2.97;;;1.50;;
30185;SDS011;31152;49.190;8.122;2023-08-30T12:36:06;3.20;;;1.50;;
30185;SDS011;31152;49.190;8.122;2023-08-30T12:38:33;2.47;;;1.50;;
30185;SDS011;31152;49.190;8.122;2023-08-30T12:41:00;1.45;;;1.20;;
30185;SDS011;31152;49.190;8.122;2023-08-30T12:43:27;2.78;;;1.52;;
30185;SDS011;31152;49.190;8.122;2023-08-30T12:45:54;2.95;;;1.33;;
30185;SDS011;31152;49.190;8.122;2023-08-30T12:48:22;3.45;;;1.60;;
30185;SDS011;31152;49.190;8.122;2023-08-30T12:50:49;3.15;;;1.60;;
30185;SDS011;31152;49.190;8.122;2023-08-30T12:53:16;2.05;;;1.45;;
30185;SDS011;31152;49.190;8.122;2023-08-30T12:55:45;2.90;;;1.80;;
30185;SDS011;31152;49.190;8.122;2023-08-30T12:58:11;2.80;;;1.70;;
30185;SDS011;31152;49.190;8.122;2023-08-30T13:00:40;8.02;;;1.80;;
30185;SDS011;31152;49.190;8.122;2023-08-30T13:03:07;4.68;;;2.00;;
30185;SDS011;31152;49.190;8.122;2023-08-30T13:05:34;3.72;;;1.50;;
30185;SDS011;31152;49.190;8.122;2023-08-30T13:08:02;7.10;;;1.60;;
30185;SDS011;31152;49.190;8.122;2023-08-30T13:10:29;3.28;;;2.00;;
30185;SDS011;31152;49.190;8.122;2023-08-30T13:12:58;2.20;;;1.50;;
30185;SDS011;31152;49.190;8.122;2023-08-30T13:15:25;2.03;;;1.35;;
30185;SDS011;31152;49.190;8.122;2023-08-30T13:17:52;3.17;;;1.63;;
30185;SDS011;31152;49.190;8.122;2023-08-30T13:20:19;5.00;;;1.50;;
30185;SDS011;31152;49.190;8.122;2023-08-30T13:22:46;4.93;;;1.85;;
30185;SDS011;31152;49.190;8.122;2023-08-30T13:25:13;3.42;;;1.80;;
30185;SDS011;31152;49.190;8.122;2023-08-30T13:27:40;3.42;;;1.70;;
30185;SDS011;31152;49.190;8.122;2023-08-30T13:30:07;6.00;;;1.77;;
30185;SDS011;31152;49.190;8.122;2023-08-30T13:32:36;4.18;;;1.80;;
30185;SDS011;31152;49.190;8.122;2023-08-30T13:35:03;5.57;;;1.60;;
30185;SDS011;31152;49.190;8.122;2023-08-30T13:37:32;3.50;;;1.60;;
30185;SDS011;31152;49.190;8.122;2023-08-30T13:40:02;2.83;;;1.60;;
30185;SDS011;31152;49.190;8.122;2023-08-30T13:42:32;3.03;;;1.80;;
30185;SDS011;31152;49.190;8.122;2023-08-30T13:45:04;2.03;;;1.70;;
30185;SDS011;31152;49.190;8.122;2023-08-30T13:47:32;2.28;;;1.50;;
30185;SDS011;31152;49.190;8.122;2023-08-30T13:50:00;2.70;;;2.03;;
30185;SDS011;31152;49.190;8.122;2023-08-30T13:52:26;2.33;;;1.58;;
30185;SDS011;31152;49.190;8.122;2023-08-30T13:54:56;2.97;;;1.70;;
30185;SDS011;31152;49.190;8.122;2023-08-30T13:57:25;2.35;;;1.33;;
30185;SDS011;31152;49.190;8.122;2023-08-30T13:59:52;3.10;;;1.50;;
30185;SDS011;31152;49.190;8.122;2023-08-30T14:02:19;3.25;;;1.77;;
30185;SDS011;31152;49.190;8.122;2023-08-30T14:04:47;4.35;;;1.60;;
30185;SDS011;31152;49.190;8.122;2023-08-30T14:07:14;3.35;;;1.80;;
30185;SDS011;31152;49.190;8.122;2023-08-30T14:09:43;4.57;;;1.83;;
30185;SDS011;31152;49.190;8.122;2023-08-30T14:12:09;2.65;;;1.60;;
30185;SDS011;31152;49.190;8.122;2023-08-30T14:14:37;2.88;;;1.67;;
30185;SDS011;31152;49.190;8.122;2023-08-30T14:17:04;3.85;;;1.75;;
30185;SDS011;31152;49.190;8.122;2023-08-30T14:19:33;4.32;;;2.03;;
30185;SDS011;31152;49.190;8.122;2023-08-30T14:22:01;3.25;;;1.75;;
30185;SDS011;31152;49.190;8.122;2023-08-30T14:24:31;3.47;;;2.08;;
30185;SDS011;31152;49.190;8.122;2023-08-30T14:27:03;3.55;;;1.80;;
30185;SDS011;31152;49.190;8.122;2023-08-30T14:29:30;3.47;;;1.92;;
30185;SDS011;31152;49.190;8.122;2023-08-30T14:31:57;7.68;;;2.10;;
30185;SDS011;31152;49.190;8.122;2023-08-30T14:34:24;4.78;;;2.08;;
30185;SDS011;31152;49.190;8.122;2023-08-30T14:36:51;3.05;;;2.20;;
30185;SDS011;31152;49.190;8.122;2023-08-30T14:39:20;6.45;;;2.30;;
30185;SDS011;31152;49.190;8.122;2023-08-30T14:41:51;3.35;;;2.00;;
30185;SDS011;31152;49.190;8.122;2023-08-30T14:44:18;4.35;;;2.25;;
30185;SDS011;31152;49.190;8.122;2023-08-30T14:46:46;3.90;;;1.90;;
30185;SDS011;31152;49.190;8.122;2023-08-30T14:49:13;2.45;;;1.63;;
30185;SDS011;31152;49.190;8.122;2023-08-30T14:51:40;2.95;;;2.03;;
30185;SDS011;31152;49.190;8.122;2023-08-30T14:54:09;3.45;;;2.03;;
30185;SDS011;31152;49.190;8.122;2023-08-30T14:56:38;3.50;;;2.10;;
30185;SDS011;31152;49.190;8.122;2023-08-30T14:59:07;4.20;;;2.00;;